Latest Weather Observations for Parawa West

IDS60901

Issued at 6:51 pm CDT Friday 27 March 2015 (issued every 10 minutes, with the page automatically refreshed every 10 minutes)

About weather observations | Map of Adelaide area stations | Latest observations for Adelaide area | Other Formats
Station Details ID: 023875 Name: SECOND VALLEY FOREST AWS Lat: -35.57 Lon: 138.29 Height: 341.0 m
Data from the previous 72 hours. | See also: Recent months at Parawa West
Date/Time
CDT
Tmp

°C
App
Tmp
°C
Dew
Point
°C
Rel
Hum
%
Delta-T

°C
Wind Press
QNH
hPa
Press
MSL
hPa
Rain
since
9 am
mm
Dir
 
Spd
km/h
Gust
km/h
Spd
kts
Gust
kts
27/06:30pm 13.0 9.6 9.1 77 2.0 SSE 17 20 9 11 1026.7 1025.9 0.6
27/06:00pm 12.9 9.6 9.5 80 1.8 SSE 17 20 9 11 1026.7 1025.9 0.6
27/05:30pm 13.3 10.6 10.5 83 1.5 SSE 15 22 8 12 1026.7 1025.9 0.6
27/05:00pm 13.3 10.4 9.5 78 2.0 SSE 15 22 8 12 1026.7 1025.9 0.6
27/04:30pm 14.4 11.5 9.6 73 2.5 SSE 15 19 8 10 1026.8 1026.0 0.6
27/04:00pm 13.9 10.4 8.7 71 2.7 SE 17 20 9 11 1026.8 1026.0 0.6
27/03:30pm 14.6 11.3 9.6 72 2.6 SSE 17 20 9 11 1026.9 1026.1 0.6
27/03:00pm 13.9 10.3 9.7 76 2.2 SE 19 24 10 13 1027.0 1026.2 0.6
27/02:30pm 13.7 10.3 10.5 81 1.7 SSE 19 24 10 13 1027.3 1026.5 0.6
27/02:00pm 15.0 12.1 9.6 70 2.8 S 15 22 8 12 1027.6 1026.9 0.6
27/01:30pm 14.0 10.6 9.2 73 2.5 SSE 17 20 9 11 1028.0 1027.3 0.6
27/01:00pm 14.4 12.2 9.4 72 2.6 S 11 19 6 10 1028.4 1027.7 0.6
27/12:30pm 14.6 12.0 9.4 71 2.7 S 13 20 7 11 1028.7 1028.0 0.6
27/12:00pm 13.2 10.3 9.6 79 1.9 S 15 24 8 13 1029.0 1028.3 0.6
27/11:30am 12.0 11.1 10.7 92 0.7 SSW 6 7 3 4 1029.3 1028.6 0.6
27/11:00am 11.4 10.6 10.9 97 0.3 S 6 9 3 5 1029.5 1028.8 0.6
27/10:30am 11.1 9.2 10.6 97 0.3 S 11 13 6 7 1029.5 1028.8 0.2
27/10:00am 11.3 9.7 10.2 93 0.6 SW 9 20 5 11 1029.3 1028.6 0.0
27/09:30am 12.0 10.1 9.2 83 1.4 SSW 9 13 5 7 1029.0 1028.3 0.0
27/09:00am 11.5 8.4 8.7 83 1.4 SSW 15 24 8 13 1029.0 1028.3 0.2
27/08:30am 11.4 8.9 8.1 80 1.6 SSW 11 17 6 9 1028.7 1028.0 0.2
27/08:00am 11.4 7.6 7.7 78 1.8 S 17 24 9 13 1028.4 1027.7 0.2
27/07:30am 11.5 8.5 7.6 77 1.9 SSW 13 19 7 10 1028.1 1027.4 0.2
27/07:00am 11.5 8.0 7.4 76 2.0 SSW 15 22 8 12 1027.8 1027.1 0.2
27/06:30am 11.6 8.7 6.5 71 2.4 SSW 11 19 6 10 1027.5 1026.7 0.2
27/06:00am 11.4 9.5 7.5 77 1.9 SW 7 15 4 8 1027.3 1026.5 0.2
27/05:30am 11.2 9.0 7.7 79 1.7 SW 9 15 5 8 1027.2 1026.4 0.2
27/05:00am 11.4 9.4 7.1 75 2.1 SSW 7 13 4 7 1027.1 1026.3 0.2
27/04:30am 11.2 9.4 7.3 77 1.9 SW 6 9 3 5 1027.1 1026.3 0.2
27/04:00am 10.9 9.0 7.6 80 1.6 SW 7 13 4 7 1027.2 1026.4 0.2
27/03:30am 10.9 8.3 7.6 80 1.6 SW 11 19 6 10 1027.3 1026.5 0.2
27/03:00am 11.0 9.1 7.7 80 1.6 SSW 7 13 4 7 1027.2 1026.4 0.2
27/02:30am 10.7 8.9 7.9 83 1.4 SW 7 11 4 6 1027.5 1026.7 0.2
27/02:00am 10.5 8.8 8.3 86 1.1 WSW 7 13 4 7 1027.5 1026.7 0.2
27/01:30am 10.5 8.9 8.6 88 0.9 WSW 7 9 4 5 1027.6 1026.9 0.2
27/01:00am 10.4 8.4 8.8 90 0.8 WSW 9 15 5 8 1027.8 1027.1 0.2
27/12:30am 10.3 8.4 8.9 91 0.7 WSW 9 15 5 8 1027.7 1027.0 0.2
27/12:00am 10.7 9.1 8.1 84 1.3 SW 6 11 3 6 1027.7 1027.0 0.2
 
Date/Time
CDT
Tmp

°C
App
Tmp
°C
Dew
Point
°C
Rel
Hum
%
Delta-T

°C
Wind Press
QNH
hPa
Press
MSL
hPa
Rain
since
9 am
mm
Dir
 
Spd
km/h
Gust
km/h
Spd
kts
Gust
kts
26/11:30pm 10.7 8.3 8.6 87 1.0 SSW 11 20 6 11 1027.9 1027.2 0.2
26/11:00pm 10.7 8.2 8.3 85 1.2 SW 11 17 6 9 1028.0 1027.3 0.2
26/10:30pm 10.3 8.8 8.6 89 0.8 SW 6 11 3 6 1028.0 1027.3 0.2
26/10:00pm 10.0 8.4 8.9 93 0.6 SSW 7 13 4 7 1028.1 1027.4 0.2
26/09:30pm 10.1 8.1 8.7 91 0.7 WSW 9 15 5 8 1028.0 1027.3 0.2
26/09:00pm 10.4 8.5 7.6 83 1.4 WSW 7 13 4 7 1028.0 1027.3 0.0
26/08:30pm 10.1 7.9 7.9 86 1.1 WSW 9 20 5 11 1027.8 1027.1 0.0
26/08:00pm 9.8 7.8 8.7 93 0.5 W 9 13 5 7 1027.5 1026.7 0.0
26/07:30pm 9.8 7.0 8.7 93 0.5 WSW 13 20 7 11 1027.5 1026.7 0.0
26/07:00pm 10.0 6.0 8.3 89 0.8 SSW 19 28 10 15 1027.3 1026.5 0.0
26/06:30pm 11.0 8.5 8.1 82 1.4 SW 11 19 6 10 1027.1 1026.3 0.0
26/06:00pm 11.5 7.0 6.0 69 2.6 WSW 19 28 10 15 1026.7 1025.9 0.0
26/05:30pm 12.1 7.9 5.5 64 3.1 SW 17 32 9 17 1026.3 1025.6 0.0
26/05:00pm 12.0 7.3 5.9 66 2.9 SW 20 30 11 16 1026.2 1025.5 0.0
26/04:30pm 12.5 7.7 5.7 63 3.2 SW 20 30 11 16 1026.0 1025.3 0.0
26/04:00pm 13.9 7.8 2.8 47 5.0 WSW 24 41 13 22 1025.8 1025.1 0.0
26/03:30pm 13.9 7.9 3.4 49 4.8 SW 24 35 13 19 1025.8 1025.1 0.0
26/03:00pm 13.3 8.7 5.7 60 3.6 SW 19 30 10 16 1025.8 1025.1 0.0
26/02:30pm 13.4 8.8 6.5 63 3.4 WSW 20 32 11 17 1025.8 1025.1 0.0
26/02:00pm 13.1 8.7 6.7 65 3.1 SW 19 28 10 15 1026.0 1025.3 0.0
26/01:30pm 13.5 7.9 5.2 57 3.9 WSW 24 33 13 18 1026.2 1025.5 0.0
26/01:00pm 12.6 7.6 6.4 66 3.0 WSW 22 35 12 19 1026.3 1025.6 0.0
26/12:30pm 13.2 8.4 5.6 60 3.6 WSW 20 33 11 18 1026.0 1025.3 0.0
26/12:00pm 11.9 7.6 8.0 77 1.9 SW 20 30 11 16 1026.1 1025.4 0.0
26/11:30am 13.0 7.5 5.7 61 3.5 SW 24 37 13 20 1025.9 1025.2 0.0
26/11:00am 11.9 7.1 5.5 65 3.0 WSW 20 35 11 19 1025.8 1025.1 0.0
26/10:30am 11.5 6.1 6.2 70 2.5 SW 24 37 13 20 1025.6 1024.9 0.0
26/10:00am 11.8 7.0 5.4 65 3.0 SW 20 33 11 18 1025.1 1024.4 0.0
26/09:30am 11.4 5.9 5.7 68 2.7 SW 24 39 13 21 1024.8 1024.0 0.0
26/09:00am 11.1 7.1 6.5 73 2.2 SW 17 28 9 15 1024.5 1023.7 -
26/08:30am 10.4 6.2 5.6 72 2.2 WSW 17 32 9 17 1024.0 1023.2 -
26/08:00am 9.3 5.3 4.7 73 2.1 SW 15 30 8 16 1023.7 1022.9 -
26/07:30am 9.3 5.6 4.5 72 2.2 WSW 13 22 7 12 1023.2 1022.5 -
26/07:00am 9.2 5.5 4.4 72 2.2 WSW 13 19 7 10 1022.9 1022.2 -
26/06:30am 9.1 5.1 5.1 76 1.8 WSW 15 28 8 15 1022.5 1021.8 -
26/06:00am 8.7 5.3 5.8 82 1.3 WSW 13 17 7 9 1022.2 1021.4 -
26/05:30am 8.7 5.7 5.8 82 1.3 WSW 11 17 6 9 1021.9 1021.1 -
26/05:00am 8.4 5.0 5.9 84 1.2 WSW 13 20 7 11 1021.8 1021.0 -
26/04:30am 9.1 4.9 5.5 78 1.7 WSW 17 24 9 13 1021.7 1020.9 -
26/04:00am 9.0 5.2 5.9 81 1.4 WSW 15 28 8 15 1021.5 1020.7 -
26/03:30am 9.0 5.5 5.6 79 1.6 WSW 13 19 7 10 1021.6 1020.8 -
26/03:00am 8.6 4.5 4.6 76 1.8 W 15 20 8 11 1021.6 1020.8 0.0
26/02:30am 8.8 4.8 4.8 76 1.8 WSW 15 20 8 11 1021.7 1020.9 -
26/02:00am 9.5 4.6 4.3 70 2.3 WSW 19 33 10 18 1021.4 1020.6 -
26/01:30am 9.2 4.2 4.4 72 2.2 WSW 20 35 11 19 1021.4 1020.6 -
26/01:00am 9.3 4.9 4.5 72 2.2 W 17 28 9 15 1021.2 1020.4 -
26/12:30am 9.8 4.3 4.0 67 2.6 W 22 32 12 17 1021.1 1020.3 -
26/12:00am 9.8 4.9 4.2 68 2.5 W 19 32 10 17 1021.2 1020.4 -
 
Date/Time
CDT
Tmp

°C
App
Tmp
°C
Dew
Point
°C
Rel
Hum
%
Delta-T

°C
Wind Press
QNH
hPa
Press
MSL
hPa
Rain
since
9 am
mm
Dir
 
Spd
km/h
Gust
km/h
Spd
kts
Gust
kts
25/11:30pm 9.8 5.0 4.4 69 2.4 W 19 32 10 17 1021.0 1020.2 -
25/11:00pm 9.9 5.8 4.1 67 2.6 WSW 15 20 8 11 1020.9 1020.1 -
25/10:30pm 10.0 5.8 3.7 65 2.8 WSW 15 24 8 13 1020.7 1019.9 -
25/10:00pm 9.9 5.8 4.3 68 2.5 WSW 15 28 8 15 1020.5 1019.7 -
25/09:30pm 10.0 5.2 4.8 70 2.4 WSW 19 33 10 18 1020.4 1019.6 -
25/09:00pm 10.0 5.6 4.6 69 2.5 WSW 17 28 9 15 1019.8 1019.0 3.0
25/08:30pm 9.9 5.6 5.3 73 2.1 WSW 17 30 9 16 1019.3 1018.5 -
25/08:00pm 10.5 6.0 6.1 74 2.1 WSW 19 26 10 14 1018.9 1018.1 -
25/07:30pm 10.6 6.6 6.7 77 1.9 WSW 17 32 9 17 1018.4 1017.6 -
25/07:00pm 10.3 7.1 8.4 88 0.9 WSW 15 28 8 15 1018.1 1017.3 -
25/06:30pm 9.8 5.8 8.2 90 0.8 WSW 19 30 10 16 1017.7 1016.9 -
25/06:00pm 9.8 4.7 9.3 97 0.3 WSW 26 43 14 23 1017.5 1016.7 -
25/05:30pm 10.8 6.4 10.5 98 0.2 SW 24 39 13 21 1016.8 1016.0 -
25/05:00pm 11.6 7.4 11.0 96 0.3 WSW 24 37 13 20 1016.5 1015.7 -
25/04:30pm 13.8 7.8 10.8 82 1.6 WNW 33 59 18 32 1015.7 1014.9 -
25/04:00pm 15.7 8.6 8.0 60 3.9 NW 35 56 19 30 1015.2 1014.4 -
25/03:31pm 16.6 9.2 8.3 58 4.3 NW 37 57 20 31 1015.2 1014.4 -
25/03:30pm 16.4 9.4 8.4 59 4.1 NW 35 50 19 27 1015.2 1014.4 -
25/03:15pm 16.3 10.3 8.5 60 4.0 NW 30 50 16 27 1015.5 1014.7 -
25/03:00pm 15.8 9.1 8.3 61 3.9 NW 33 48 18 26 1015.7 1014.9 -
25/02:30pm 15.4 9.5 7.4 59 4.0 NW 28 46 15 25 1016.3 1015.5 -
25/02:09pm 15.4 9.7 8.4 63 3.6 NW 28 54 15 29 1016.4 1015.6 -
25/02:00pm 15.5 10.2 8.3 62 3.7 NW 26 46 14 25 1016.5 1015.7 -
25/01:30pm 15.8 10.0 7.8 59 4.1 NW 28 46 15 25 1017.1 1016.3 -
25/01:15pm 15.7 9.9 8.0 60 3.9 NW 28 46 15 25 1017.3 1016.4 -
25/01:00pm 15.7 10.5 8.9 64 3.5 NW 26 41 14 22 1017.4 1016.5 -
25/12:30pm 14.7 10.0 9.1 69 2.9 NW 24 37 13 20 1017.6 1016.8 -
25/11:30am 13.7 9.4 7.7 67 3.0 NW 20 32 11 17 1018.4 1017.6 -
25/11:00am 14.1 9.7 7.4 64 3.4 NW 20 30 11 16 1018.5 1017.7 -
25/10:30am 14.1 10.2 6.9 62 3.6 NW 17 30 9 16 1018.9 1018.1 -

Latest Capital City Observations: Canberra | Sydney | Melbourne | Brisbane | Adelaide | Perth | Hobart | Darwin

Other Formats:

Comma delimited format used in spreadsheet applications
http://www.bom.gov.au/fwo/IDS60901/IDS60901.94811.axf

JavaScript Object Notation format (JSON) in row-major order
http://www.bom.gov.au/fwo/IDS60901/IDS60901.94811.json